Time;durP1;ratioP1;P1;durP2;ratioP2;P2;SDS_P1;SDS_P2;PMS_P1;PMS_P2;Temp;Humidity;BMP_temperature;BMP_pressure;BME280_temperature;BME280_humidity;BME280_pressure;Samples;Min_cycle;Max_cycle;Signal;HPM_P1;HPM_P2
2022/11/01 00:01:48;;;;;;;19.30;11.52;;;13.50;99.90;;;;;;4989710;28;20050;-76
2022/11/01 00:04:14;;;;;;;18.48;12.20;;;13.60;99.90;;;;;;4972899;28;20038;-76
2022/11/01 00:06:39;;;;;;;21.67;11.77;;;13.60;99.90;;;;;;4990087;28;20157;-75
2022/11/01 00:09:06;;;;;;;17.65;11.43;;;13.70;99.90;;;;;;4994207;28;20042;-76
2022/11/01 00:11:32;;;;;;;19.83;11.63;;;13.70;99.90;;;;;;4994446;28;20494;-74
2022/11/01 00:13:58;;;;;;;19.33;11.25;;;13.70;99.90;;;;;;4992569;28;20082;-77
2022/11/01 00:16:24;;;;;;;17.83;10.85;;;13.70;99.90;;;;;;4993819;28;20085;-74
2022/11/01 00:18:49;;;;;;;17.48;10.63;;;13.80;99.90;;;;;;4975187;28;20086;-76
2022/11/01 00:21:15;;;;;;;18.20;10.20;;;13.90;99.90;;;;;;4961620;28;20105;-76
2022/11/01 00:23:41;;;;;;;20.80;10.25;;;13.90;99.90;;;;;;4992839;28;20044;-75
2022/11/01 00:26:12;;;;;;;17.55;10.63;;;14.00;99.90;;;;;;4976938;28;20046;-78
2022/11/01 00:28:38;;;;;;;17.33;10.82;;;14.00;99.90;;;;;;4978019;28;20112;-76
2022/11/01 00:31:04;;;;;;;21.25;11.25;;;14.00;99.90;;;;;;4976555;28;20038;-80
2022/11/01 00:33:30;;;;;;;18.85;10.23;;;14.00;99.90;;;;;;4976072;28;20125;-78
2022/11/01 00:35:59;;;;;;;16.60;10.55;;;14.10;99.90;;;;;;4992518;28;20153;-78
2022/11/01 00:38:25;;;;;;;18.02;9.52;;;14.10;99.90;;;;;;4993452;28;20034;-76
2022/11/01 00:40:51;;;;;;;18.48;10.18;;;14.10;99.90;;;;;;4993956;28;20049;-75
2022/11/01 00:43:16;;;;;;;16.17;10.10;;;14.10;99.90;;;;;;4971789;28;20482;-80
2022/11/01 00:45:43;;;;;;;16.60;9.52;;;14.10;99.90;;;;;;4992792;28;20038;-76
2022/11/01 00:48:09;;;;;;;14.35;9.23;;;14.10;99.90;;;;;;4992770;28;20648;-81
2022/11/01 00:50:35;;;;;;;21.05;10.75;;;14.10;99.90;;;;;;4991371;28;20049;-75
2022/11/01 00:53:01;;;;;;;16.75;9.95;;;14.10;99.90;;;;;;4991247;28;20422;-77
2022/11/01 00:55:26;;;;;;;16.65;9.50;;;14.20;99.90;;;;;;4992516;28;20069;-75
2022/11/01 00:57:52;;;;;;;19.75;10.07;;;14.20;99.90;;;;;;4993340;28;20548;-76
2022/11/01 01:00:18;;;;;;;16.17;9.88;;;14.30;99.90;;;;;;4973488;28;20054;-76
2022/11/01 01:02:43;;;;;;;15.32;8.98;;;14.30;99.90;;;;;;4988172;28;20073;-76
2022/11/01 01:05:09;;;;;;;16.42;9.48;;;14.40;99.90;;;;;;4989105;28;20045;-76
2022/11/01 01:07:35;;;;;;;16.75;8.70;;;14.40;99.90;;;;;;4976951;28;20085;-75
2022/11/01 01:10:01;;;;;;;16.10;8.57;;;14.50;99.90;;;;;;4990484;28;20105;-75
2022/11/01 01:12:26;;;;;;;17.60;9.18;;;14.50;99.90;;;;;;4992325;28;20045;-77
2022/11/01 01:14:53;;;;;;;16.05;9.15;;;14.50;99.90;;;;;;4990528;28;20050;-76
2022/11/01 01:17:18;;;;;;;14.43;7.93;;;14.50;99.90;;;;;;4990563;28;20050;-74
2022/11/01 01:19:44;;;;;;;16.63;8.68;;;14.50;99.90;;;;;;4988886;28;20504;-76
2022/11/01 01:22:10;;;;;;;17.13;9.13;;;14.50;99.90;;;;;;4993510;28;20053;-76
2022/11/01 01:24:36;;;;;;;18.05;8.48;;;14.60;99.90;;;;;;4961319;28;20108;-76
2022/11/01 01:27:02;;;;;;;16.27;8.57;;;14.60;99.90;;;;;;4992424;28;20046;-78
2022/11/01 01:29:28;;;;;;;15.80;8.88;;;14.60;99.90;;;;;;4992810;28;20417;-78
2022/11/01 01:31:54;;;;;;;16.95;7.97;;;14.60;99.90;;;;;;4960460;28;20038;-78
2022/11/01 01:34:20;;;;;;;15.95;8.45;;;14.60;99.90;;;;;;4971020;28;20056;-77
2022/11/01 01:36:46;;;;;;;17.30;8.93;;;14.80;99.90;;;;;;4991139;28;20041;-76
2022/11/01 01:39:12;;;;;;;16.17;8.02;;;14.80;99.90;;;;;;4993019;28;20039;-76
2022/11/01 01:41:55;;;;;;;16.55;8.43;;;14.80;99.90;;;;;;4992172;28;20069;-76
2022/11/01 01:44:49;;;;;;;14.60;8.45;;;14.80;99.90;;;;;;4989753;28;20392;-76
2022/11/01 01:47:21;;;;;;;17.33;8.75;;;14.80;99.90;;;;;;4992376;28;20083;-76
2022/11/01 01:49:51;;;;;;;16.45;8.40;;;14.80;99.90;;;;;;4989182;28;20042;-78
2022/11/01 01:52:18;;;;;;;12.45;7.10;;;14.80;99.90;;;;;;4971744;28;20074;-77
2022/11/01 01:54:44;;;;;;;14.18;7.95;;;14.80;99.90;;;;;;4991751;28;20066;-77
2022/11/01 01:57:10;;;;;;;16.40;8.75;;;14.80;99.90;;;;;;4989521;28;20066;-75
2022/11/01 01:59:37;;;;;;;17.23;8.48;;;14.80;99.90;;;;;;4989111;28;20409;-77
2022/11/01 02:02:03;;;;;;;14.07;8.48;;;14.80;99.90;;;;;;4976916;28;20047;-78
2022/11/01 02:04:35;;;;;;;17.45;8.18;;;14.80;99.90;;;;;;4992266;28;20532;-79
2022/11/01 02:07:00;;;;;;;13.90;8.50;;;14.80;99.90;;;;;;4974476;28;20049;-77
2022/11/01 02:09:26;;;;;;;15.93;7.72;;;14.70;99.90;;;;;;4975858;28;20042;-76
2022/11/01 02:11:52;;;;;;;15.20;8.30;;;14.70;99.90;;;;;;4991082;28;20054;-79
2022/11/01 02:14:23;;;;;;;14.65;8.35;;;14.70;99.90;;;;;;4973633;28;20053;-77
2022/11/01 02:17:09;;;;;;;14.68;8.30;;;14.70;99.90;;;;;;4992050;28;20046;-75
2022/11/01 02:20:08;;;;;;;14.80;8.18;;;14.70;99.90;;;;;;4974391;28;20054;-77
2022/11/01 02:22:58;;;;;;;13.55;8.07;;;14.60;99.90;;;;;;4990563;28;20124;-78
2022/11/01 02:25:58;;;;;;;14.50;7.88;;;14.60;99.90;;;;;;4991651;28;20048;-79
2022/11/01 02:29:00;;;;;;;14.20;8.00;;;14.60;99.90;;;;;;4991404;28;20386;-75
2022/11/01 02:31:50;;;;;;;17.35;8.23;;;14.60;99.90;;;;;;4990084;28;20475;-77
2022/11/01 02:34:41;;;;;;;14.50;8.40;;;14.60;99.90;;;;;;4990166;28;20046;-76
2022/11/01 02:37:22;;;;;;;15.63;8.35;;;14.60;99.90;;;;;;4988713;28;20052;-75
2022/11/01 02:39:54;;;;;;;15.35;8.23;;;14.70;99.90;;;;;;4979862;28;20050;-77
2022/11/01 02:42:44;;;;;;;14.95;8.20;;;14.60;99.90;;;;;;4970279;28;20042;-76
2022/11/01 02:45:38;;;;;;;14.38;8.10;;;14.70;99.90;;;;;;4990964;28;20105;-75
2022/11/01 02:48:05;;;;;;;14.13;7.97;;;14.60;99.90;;;;;;4989191;28;20046;-76
2022/11/01 02:50:45;;;;;;;15.15;8.02;;;14.60;99.90;;;;;;4991149;28;20042;-78
2022/11/01 02:53:12;;;;;;;14.05;8.15;;;14.60;99.90;;;;;;4986650;28;20054;-76
2022/11/01 02:55:38;;;;;;;14.73;7.88;;;14.70;99.90;;;;;;4975057;28;20470;-79
2022/11/01 02:58:16;;;;;;;14.70;7.85;;;14.70;99.90;;;;;;4991366;28;20215;-78
2022/11/01 03:00:43;;;;;;;13.57;7.60;;;14.70;99.90;;;;;;4990934;28;20121;-77
2022/11/01 03:03:19;;;;;;;13.52;7.43;;;14.70;99.90;;;;;;4973239;28;20878;-76
2022/11/01 03:06:01;;;;;;;14.88;7.68;;;14.70;99.90;;;;;;4990636;28;20049;-77
2022/11/01 03:08:30;;;;;;;;;;;14.80;99.90;;;;;;4991540;28;20507;-77
2022/11/01 03:11:04;;;;;;;13.65;7.97;;;14.80;99.90;;;;;;4989711;28;19956;-75
2022/11/01 03:13:45;;;;;;;14.52;7.35;;;14.80;99.90;;;;;;4989857;28;20063;-77
2022/11/01 03:16:41;;;;;;;16.02;7.57;;;14.80;99.90;;;;;;4990435;28;20129;-76
2022/11/01 03:19:50;;;;;;;14.82;7.72;;;14.80;99.90;;;;;;4989547;28;20050;-78
2022/11/01 03:22:20;;;;;;;13.27;7.30;;;14.80;99.90;;;;;;4920859;29;20051;-78
2022/11/01 03:25:04;;;;;;;13.18;7.78;;;14.80;99.90;;;;;;4982324;28;20077;-77
2022/11/01 03:27:38;;;;;;;14.88;7.10;;;14.80;99.90;;;;;;4974295;28;20121;-79
2022/11/01 03:30:10;;;;;;;14.75;7.90;;;14.80;99.90;;;;;;4990610;28;20494;-75
2022/11/01 03:32:42;;;;;;;17.40;7.72;;;14.80;99.90;;;;;;4990064;28;20046;-76
2022/11/01 03:35:13;;;;;;;16.05;7.50;;;14.80;99.90;;;;;;4972887;28;20105;-78
2022/11/01 03:37:42;;;;;;;13.75;7.30;;;14.80;99.90;;;;;;4974191;28;20060;-77
2022/11/01 03:40:10;;;;;;;14.88;7.43;;;14.80;99.90;;;;;;4974317;28;20042;-76
2022/11/01 03:42:38;;;;;;;12.75;7.43;;;14.80;99.90;;;;;;4989583;28;20100;-75
2022/11/01 03:45:09;;;;;;;12.50;7.18;;;14.80;99.90;;;;;;4990002;28;20057;-74
2022/11/01 03:47:35;;;;;;;12.90;7.22;;;14.90;99.90;;;;;;4990306;28;20057;-75
2022/11/01 03:50:25;;;;;;;13.45;7.30;;;14.80;99.90;;;;;;4989332;28;20046;-78
2022/11/01 03:52:51;;;;;;;13.25;6.93;;;14.90;99.90;;;;;;4989350;28;20386;-76
2022/11/01 03:55:19;;;;;;;12.85;6.68;;;14.80;99.90;;;;;;4990288;28;20423;-76
2022/11/01 03:57:52;;;;;;;13.52;7.60;;;14.80;99.90;;;;;;4980738;28;20054;-77
2022/11/01 04:00:21;;;;;;;14.57;7.10;;;14.70;99.90;;;;;;4990157;28;20050;-78
2022/11/01 04:02:50;;;;;;;13.18;7.38;;;14.70;99.90;;;;;;4989597;28;20050;-76
2022/11/01 04:05:17;;;;;;;13.13;6.78;;;14.80;99.90;;;;;;4973441;28;20074;-76
2022/11/01 04:07:43;;;;;;;16.60;6.88;;;14.70;99.90;;;;;;4989988;28;20382;-74
2022/11/01 04:10:10;;;;;;;14.07;6.90;;;14.70;99.90;;;;;;4989443;28;21003;-76
2022/11/01 04:12:36;;;;;;;15.35;6.57;;;14.70;99.90;;;;;;4989656;28;20435;-79
2022/11/01 04:20:32;;;;;;;12.73;6.78;;;14.60;99.90;;;;;;4980249;28;20490;-76
2022/11/01 04:23:05;;;;;;;13.65;6.47;;;14.60;99.90;;;;;;4989493;28;20474;-75
2022/11/01 04:25:32;;;;;;;11.90;5.80;;;14.60;99.90;;;;;;4989677;28;20038;-75
2022/11/01 04:27:58;;;;;;;13.35;6.10;;;14.70;99.90;;;;;;4989555;28;20577;-78
2022/11/01 04:30:26;;;;;;;11.82;5.97;;;14.70;99.90;;;;;;4974044;28;20117;-76
2022/11/01 04:32:51;;;;;;;13.85;6.30;;;14.70;99.90;;;;;;4989081;28;20034;-76
2022/11/01 04:35:17;;;;;;;11.25;6.18;;;14.70;99.90;;;;;;4990784;28;20052;-76
2022/11/01 04:37:43;;;;;;;12.48;6.18;;;14.70;99.90;;;;;;4987604;28;20049;-76
2022/11/01 04:40:09;;;;;;;14.10;6.10;;;14.80;99.90;;;;;;4967211;28;20065;-76
2022/11/01 04:42:36;;;;;;;11.55;5.78;;;14.80;99.90;;;;;;4989177;28;20042;-76
2022/11/01 04:45:03;;;;;;;10.45;5.65;;;14.80;99.90;;;;;;4989484;28;20050;-76
2022/11/01 04:47:29;;;;;;;12.15;6.10;;;14.80;99.90;;;;;;4989874;28;20130;-76
2022/11/01 04:49:54;;;;;;;13.00;6.07;;;14.90;99.90;;;;;;4990099;28;20533;-76
2022/11/01 04:52:20;;;;;;;11.50;6.43;;;15.00;99.90;;;;;;4989369;28;20046;-76
2022/11/01 04:54:46;;;;;;;11.07;6.00;;;15.00;99.90;;;;;;4990846;28;20099;-76
2022/11/01 04:57:24;;;;;;;11.00;5.75;;;15.10;99.90;;;;;;5009892;28;20061;-75
2022/11/01 04:59:54;;;;;;;10.93;5.90;;;15.10;99.90;;;;;;5009363;28;20121;-80
2022/11/01 05:02:22;;;;;;;11.25;5.80;;;15.10;99.90;;;;;;4992672;28;20474;-77
2022/11/01 05:04:48;;;;;;;11.85;5.93;;;15.20;99.90;;;;;;4992567;28;20042;-77
2022/11/01 05:07:14;;;;;;;10.50;6.05;;;15.20;99.90;;;;;;4993209;28;20046;-76
2022/11/01 05:09:40;;;;;;;12.88;5.55;;;15.20;99.90;;;;;;4993198;28;20134;-76
2022/11/01 05:12:07;;;;;;;9.68;5.65;;;15.20;99.90;;;;;;4991223;28;20038;-76
2022/11/01 05:14:33;;;;;;;13.35;5.72;;;15.30;99.90;;;;;;4992468;28;20128;-78
2022/11/01 05:16:59;;;;;;;11.73;5.80;;;15.30;99.90;;;;;;4973529;28;20539;-77
2022/11/01 05:19:25;;;;;;;10.70;5.40;;;15.40;99.90;;;;;;4992375;28;20064;-78
2022/11/01 05:21:51;;;;;;;11.18;5.88;;;15.40;99.90;;;;;;4976756;28;20062;-76
2022/11/01 05:24:17;;;;;;;11.50;5.40;;;15.40;99.90;;;;;;4988867;28;20054;-76
2022/11/01 05:26:43;;;;;;;10.65;5.47;;;15.50;99.90;;;;;;4993002;28;20042;-76
2022/11/01 05:29:09;;;;;;;10.38;5.40;;;15.50;99.90;;;;;;4975293;28;20097;-79
2022/11/01 05:31:35;;;;;;;11.82;5.60;;;15.50;99.90;;;;;;4983389;28;20050;-76
2022/11/01 05:34:01;;;;;;;12.90;5.40;;;15.50;99.90;;;;;;4991040;28;20050;-76
2022/11/01 05:36:26;;;;;;;13.82;5.53;;;15.50;99.90;;;;;;4991864;28;20415;-76
2022/11/01 05:38:56;;;;;;;10.52;5.20;;;15.60;99.90;;;;;;4992612;28;20082;-76
2022/11/01 05:41:22;;;;;;;11.77;5.40;;;15.60;99.90;;;;;;4977424;28;20525;-77
2022/11/01 05:43:47;;;;;;;10.90;5.40;;;15.60;99.90;;;;;;4989613;28;20303;-76
2022/11/01 05:46:13;;;;;;;10.93;5.03;;;15.60;99.90;;;;;;4984230;28;20205;-77
2022/11/01 05:48:40;;;;;;;9.10;5.00;;;15.60;99.90;;;;;;4991135;28;20466;-79
2022/11/01 05:51:06;;;;;;;11.15;4.95;;;15.60;99.90;;;;;;4985415;28;20399;-76
2022/11/01 05:53:32;;;;;;;13.55;5.68;;;15.60;99.90;;;;;;4991248;28;20124;-76
2022/11/01 05:55:58;;;;;;;11.73;5.10;;;15.60;99.90;;;;;;4986816;28;20097;-78
2022/11/01 05:58:24;;;;;;;11.35;5.50;;;15.60;99.90;;;;;;4988905;28;20454;-78
2022/11/01 06:00:59;;;;;;;10.38;4.85;;;15.60;99.90;;;;;;4974258;28;20168;-79
2022/11/01 06:03:25;;;;;;;11.85;4.47;;;15.50;99.90;;;;;;4989840;28;20062;-77
2022/11/01 06:05:51;;;;;;;10.18;4.53;;;15.50;99.90;;;;;;4986053;28;20034;-76
2022/11/01 06:08:17;;;;;;;10.85;4.18;;;15.40;99.90;;;;;;4990549;28;20483;-77
2022/11/01 06:10:42;;;;;;;8.60;3.90;;;15.40;99.90;;;;;;4976229;28;20501;-83
2022/11/01 06:13:09;;;;;;;10.55;4.10;;;15.40;99.90;;;;;;4991025;28;20294;-77
2022/11/01 06:15:35;;;;;;;8.43;3.80;;;15.40;99.90;;;;;;4991691;28;20417;-77
2022/11/01 06:18:00;;;;;;;7.97;3.65;;;15.30;99.90;;;;;;4987038;28;20051;-76
2022/11/01 06:20:28;;;;;;;8.65;3.10;;;15.30;99.90;;;;;;4978822;28;20109;-78
2022/11/01 06:22:54;;;;;;;7.38;2.80;;;15.20;99.90;;;;;;4988085;28;20051;-77
2022/11/01 06:25:21;;;;;;;9.50;2.85;;;15.20;99.90;;;;;;4982156;28;20050;-78
2022/11/01 06:27:47;;;;;;;5.82;2.30;;;15.10;99.90;;;;;;4974065;28;20036;-82
2022/11/01 06:30:13;;;;;;;5.78;2.00;;;15.10;99.90;;;;;;4959581;28;20122;-79
2022/11/01 06:32:38;;;;;;;7.60;1.70;;;15.10;99.90;;;;;;4986652;28;20074;-77
2022/11/01 06:35:04;;;;;;;6.90;1.70;;;15.00;99.90;;;;;;4977865;28;20049;-79
2022/11/01 06:37:30;;;;;;;5.95;1.58;;;14.90;99.90;;;;;;4973856;28;20373;-78
2022/11/01 06:39:56;;;;;;;5.82;1.50;;;14.80;99.90;;;;;;4965096;28;20045;-77
2022/11/01 06:42:21;;;;;;;6.40;1.75;;;14.80;99.90;;;;;;4966989;28;20074;-77
2022/11/01 06:44:47;;;;;;;6.32;1.60;;;14.70;99.90;;;;;;4970474;28;20093;-78
2022/11/01 06:47:13;;;;;;;5.95;1.73;;;14.60;99.90;;;;;;4983401;28;20050;-78
2022/11/01 06:49:39;;;;;;;6.30;1.63;;;14.50;99.90;;;;;;4982516;28;20038;-78
2022/11/01 06:52:05;;;;;;;5.03;1.40;;;14.40;99.90;;;;;;4967532;28;20087;-78
2022/11/01 06:54:31;;;;;;;5.88;1.50;;;14.30;99.90;;;;;;4973794;28;20049;-78
2022/11/01 06:56:57;;;;;;;6.13;1.40;;;14.20;99.90;;;;;;4986520;28;20050;-77
2022/11/01 06:59:23;;;;;;;5.40;1.40;;;14.20;99.90;;;;;;4990773;28;20061;-80
2022/11/01 07:01:51;;;;;;;5.50;1.40;;;14.10;99.90;;;;;;4990390;28;20042;-77
2022/11/01 07:04:17;;;;;;;5.65;1.30;;;14.10;99.90;;;;;;4989214;28;20058;-77
2022/11/01 07:06:43;;;;;;;6.05;1.40;;;14.00;99.90;;;;;;4974529;28;20034;-78
2022/11/01 07:09:09;;;;;;;5.38;1.20;;;14.00;99.90;;;;;;4989148;28;20038;-79
2022/11/01 07:11:35;;;;;;;9.00;1.30;;;13.90;99.90;;;;;;4971881;28;20085;-76
2022/11/01 07:14:01;;;;;;;4.35;1.20;;;13.80;99.90;;;;;;4987435;28;20070;-76
2022/11/01 07:16:28;;;;;;;6.03;1.30;;;13.70;99.90;;;;;;4978649;28;20038;-77
2022/11/01 07:18:54;;;;;;;5.47;1.50;;;13.70;99.90;;;;;;4988415;28;20050;-75
2022/11/01 07:21:20;;;;;;;5.13;1.23;;;13.70;99.90;;;;;;4973784;28;20118;-76
2022/11/01 07:23:46;;;;;;;6.88;1.50;;;13.60;99.90;;;;;;4988697;28;20138;-76
2022/11/01 07:26:11;;;;;;;4.72;1.20;;;13.60;99.90;;;;;;4990338;28;20046;-76
2022/11/01 07:28:38;;;;;;;5.30;1.40;;;13.50;99.90;;;;;;4990440;28;20509;-76
2022/11/01 07:31:05;;;;;;;6.00;1.50;;;13.50;99.90;;;;;;4975835;28;20047;-76
2022/11/01 07:33:31;;;;;;;5.30;1.48;;;13.40;99.90;;;;;;4986113;28;20049;-75
2022/11/01 07:35:56;;;;;;;6.60;1.60;;;13.40;99.90;;;;;;4988075;28;20046;-76
2022/11/01 07:38:22;;;;;;;6.20;1.40;;;13.40;99.90;;;;;;4987243;28;20047;-78
2022/11/01 07:40:49;;;;;;;3.55;1.10;;;13.50;99.90;;;;;;4990581;28;20129;-76
2022/11/01 07:43:16;;;;;;;5.65;1.30;;;13.50;99.90;;;;;;4987062;28;20117;-77
2022/11/01 07:45:42;;;;;;;5.60;1.35;;;13.60;99.90;;;;;;4974084;28;20387;-76
2022/11/01 07:48:12;;;;;;;5.80;1.27;;;13.70;99.90;;;;;;4988971;28;20046;-77
2022/11/01 07:50:39;;;;;;;4.35;1.27;;;13.70;99.90;;;;;;4990537;28;20434;-77
2022/11/01 07:53:06;;;;;;;5.95;1.35;;;13.70;99.90;;;;;;4969250;28;20081;-80
2022/11/01 07:55:33;;;;;;;6.80;1.40;;;13.80;99.90;;;;;;4973579;28;20053;-76
2022/11/01 07:57:58;;;;;;;7.47;1.42;;;13.80;99.90;;;;;;4989528;28;20078;-76
2022/11/01 08:00:24;;;;;;;5.88;1.50;;;13.90;99.90;;;;;;4974195;28;20490;-76
2022/11/01 08:02:50;;;;;;;5.88;1.38;;;13.90;99.90;;;;;;4968283;28;20053;-77
2022/11/01 08:05:16;;;;;;;8.80;1.70;;;14.00;99.90;;;;;;4974628;28;20042;-78
2022/11/01 08:07:42;;;;;;;7.57;1.55;;;14.00;99.90;;;;;;4990175;28;20038;-80
2022/11/01 08:10:10;;;;;;;7.70;1.60;;;14.10;99.90;;;;;;4987022;28;20145;-77
2022/11/01 08:12:36;;;;;;;9.27;2.00;;;14.10;99.90;;;;;;4987756;28;20042;-78
2022/11/01 08:15:02;;;;;;;8.50;1.63;;;14.10;99.90;;;;;;4957253;28;20085;-79
2022/11/01 08:17:28;;;;;;;8.82;1.80;;;14.10;99.90;;;;;;4989637;28;20042;-76
2022/11/01 08:19:54;;;;;;;10.88;2.10;;;14.20;99.90;;;;;;4988902;28;20090;-77
2022/11/01 08:22:20;;;;;;;11.82;2.28;;;14.20;99.90;;;;;;4961396;28;20038;-76
2022/11/01 08:24:46;;;;;;;10.63;2.03;;;14.20;99.90;;;;;;4988803;28;20177;-76
2022/11/01 08:27:12;;;;;;;7.65;1.70;;;14.20;99.90;;;;;;4988190;28;20042;-79
2022/11/01 08:29:38;;;;;;;11.52;2.20;;;14.30;99.90;;;;;;4989760;28;20230;-76
2022/11/01 08:32:04;;;;;;;9.82;2.05;;;14.40;99.90;;;;;;4963671;28;20044;-75
2022/11/01 08:34:30;;;;;;;9.88;1.92;;;14.30;99.90;;;;;;4991771;28;20046;-76
2022/11/01 08:36:56;;;;;;;9.38;2.03;;;14.40;99.90;;;;;;4976410;28;20042;-78
2022/11/01 08:39:22;;;;;;;12.60;2.30;;;14.50;99.90;;;;;;4992167;28;20565;-76
2022/11/01 08:41:48;;;;;;;11.32;2.50;;;14.50;99.90;;;;;;4993800;28;20042;-77
2022/11/01 08:44:16;;;;;;;9.85;2.03;;;14.60;99.90;;;;;;4978552;28;20045;-78
2022/11/01 08:46:42;;;;;;;12.02;2.53;;;14.70;99.90;;;;;;4993283;28;20042;-76
2022/11/01 08:49:09;;;;;;;12.32;2.30;;;14.70;99.90;;;;;;4976905;28;20433;-77
2022/11/01 08:51:36;;;;;;;12.00;2.50;;;14.80;99.90;;;;;;4990597;28;20078;-75
2022/11/01 08:54:02;;;;;;;11.82;2.20;;;14.90;99.90;;;;;;4988000;28;20104;-76
2022/11/01 08:56:28;;;;;;;12.27;2.47;;;14.90;99.90;;;;;;4992438;28;20410;-76
2022/11/01 08:58:54;;;;;;;10.05;2.20;;;15.00;99.90;;;;;;4985867;28;20411;-76
2022/11/01 09:01:22;;;;;;;13.90;2.40;;;15.00;99.90;;;;;;4968536;28;20058;-79
2022/11/01 09:03:48;;;;;;;13.07;2.33;;;15.10;99.90;;;;;;4965329;28;20510;-77
2022/11/01 09:06:14;;;;;;;15.30;2.58;;;15.20;99.90;;;;;;4982016;28;20047;-77
2022/11/01 09:08:40;;;;;;;12.07;2.50;;;15.20;99.90;;;;;;4970460;28;20046;-76
2022/11/01 09:11:06;;;;;;;13.88;2.85;;;15.20;99.90;;;;;;4973474;28;20042;-80
2022/11/01 09:13:33;;;;;;;11.40;2.30;;;15.20;99.90;;;;;;4988504;28;20105;-76
2022/11/01 09:16:03;;;;;;;14.80;2.70;;;15.30;99.90;;;;;;4975608;28;21102;-79
2022/11/01 09:18:28;;;;;;;13.75;2.70;;;15.30;99.90;;;;;;4970587;28;20664;-76
2022/11/01 09:20:55;;;;;;;14.82;2.95;;;15.40;99.90;;;;;;4965971;28;20051;-76
2022/11/01 09:23:21;;;;;;;15.38;3.20;;;15.40;99.90;;;;;;4981066;28;20074;-77
2022/11/01 09:25:47;;;;;;;13.10;2.83;;;15.50;99.90;;;;;;4987042;28;20120;-81
2022/11/01 09:28:13;;;;;;;12.63;2.65;;;15.50;99.90;;;;;;4984406;28;20114;-77
2022/11/01 09:30:39;;;;;;;14.82;2.92;;;15.60;99.90;;;;;;4988104;28;20117;-78
2022/11/01 09:33:06;;;;;;;15.15;2.80;;;15.60;99.90;;;;;;4988533;28;20046;-76
2022/11/01 09:35:32;;;;;;;9.63;2.80;;;15.60;99.90;;;;;;4975010;28;20118;-78
2022/11/01 09:37:59;;;;;;;15.65;2.90;;;15.70;99.90;;;;;;4972317;28;20380;-78
2022/11/01 09:40:34;;;;;;;13.60;2.88;;;15.80;99.90;;;;;;4986473;28;20110;-79
2022/11/01 09:43:02;;;;;;;13.20;2.90;;;15.80;99.90;;;;;;4986375;28;20090;-76
2022/11/01 09:45:31;;;;;;;13.20;2.60;;;15.90;99.90;;;;;;4989160;28;20057;-76
2022/11/01 09:47:59;;;;;;;13.85;2.60;;;15.90;99.90;;;;;;4970155;28;20045;-80
2022/11/01 09:50:28;;;;;;;14.85;2.92;;;16.00;99.90;;;;;;4988684;28;20149;-78
2022/11/01 09:52:56;;;;;;;12.30;2.60;;;16.10;99.90;;;;;;4991106;28;20069;-76
2022/11/01 09:55:46;;;;;;;15.75;2.95;;;16.10;99.90;;;;;;4991335;28;20042;-75
2022/11/01 09:58:44;;;;;;;16.58;2.75;;;16.10;99.90;;;;;;4975110;28;20151;-77
2022/11/01 10:01:14;;;;;;;14.55;2.92;;;16.10;99.90;;;;;;4975251;28;20498;-79
2022/11/01 10:03:55;;;;;;;11.13;2.45;;;16.20;99.90;;;;;;4987989;28;20446;-78
2022/11/01 10:06:26;;;;;;;16.05;3.33;;;16.30;99.90;;;;;;4976038;28;20042;-81
2022/11/01 10:09:18;;;;;;;16.17;3.00;;;16.30;99.90;;;;;;4975154;28;20078;-78
2022/11/01 10:11:56;;;;;;;15.63;3.10;;;16.30;99.90;;;;;;4954022;28;20061;-77
2022/11/01 10:14:43;;;;;;;13.63;3.00;;;16.40;99.90;;;;;;4969816;28;20479;-77
2022/11/01 10:17:09;;;;;;;12.65;2.90;;;16.30;99.90;;;;;;4982378;28;20042;-76
2022/11/01 10:19:35;;;;;;;11.93;2.80;;;16.40;99.90;;;;;;4990837;28;20038;-78
2022/11/01 10:22:15;;;;;;;13.07;2.83;;;16.30;99.90;;;;;;4978460;28;20042;-78
2022/11/01 10:24:43;;;;;;;13.45;2.90;;;16.30;99.90;;;;;;4973604;28;20374;-80
2022/11/01 10:27:30;;;;;;;14.82;3.03;;;16.30;99.90;;;;;;4972503;28;20497;-80
2022/11/01 10:30:04;;;;;;;13.77;2.90;;;16.40;99.90;;;;;;4994336;28;20525;-77
2022/11/01 10:32:48;;;;;;;15.30;2.97;;;16.40;99.90;;;;;;4973469;28;20087;-77
2022/11/01 10:35:19;;;;;;;13.93;3.03;;;16.40;99.90;;;;;;4981376;28;20042;-81
2022/11/01 10:38:18;;;;;;;17.27;2.88;;;16.40;99.90;;;;;;4974895;28;20129;-83
2022/11/01 10:41:22;;;;;;;13.40;2.72;;;16.30;99.90;;;;;;4974547;28;20069;-79
2022/11/01 10:43:56;;;;;;;12.50;2.63;;;16.10;99.90;;;;;;4973845;28;20073;-81
2022/11/01 10:46:30;;;;;;;14.05;2.80;;;16.00;99.90;;;;;;4975137;28;20050;-77
2022/11/01 10:49:00;;;;;;;14.77;2.90;;;15.90;99.90;;;;;;4973432;28;20104;-81
2022/11/01 10:51:30;;;;;;;15.10;3.05;;;15.90;99.90;;;;;;4975374;28;20038;-81
2022/11/01 10:54:01;;;;;;;16.25;2.88;;;15.90;99.90;;;;;;4988115;28;20049;-77
2022/11/01 10:56:43;;;;;;;15.07;2.90;;;16.00;99.90;;;;;;4988365;28;20050;-77
2022/11/01 10:59:21;;;;;;;15.60;3.03;;;16.00;99.90;;;;;;4988798;28;20104;-82
2022/11/01 11:01:49;;;;;;;15.02;2.85;;;16.10;99.90;;;;;;4990029;28;20042;-79
2022/11/01 11:04:19;;;;;;;15.85;3.25;;;16.10;99.90;;;;;;4972079;28;20034;-79
2022/11/01 11:06:45;;;;;;;15.18;2.80;;;16.20;99.90;;;;;;4989353;28;20113;-77
2022/11/01 11:09:28;;;;;;;17.90;3.17;;;16.00;99.90;;;;;;4990632;28;20113;-80
2022/11/01 11:12:11;;;;;;;12.05;2.90;;;16.10;99.90;;;;;;4974410;28;20545;-82
2022/11/01 11:14:39;;;;;;;16.10;3.10;;;16.10;99.90;;;;;;4989245;28;20066;-78
2022/11/01 11:17:21;;;;;;;14.90;3.00;;;16.20;99.90;;;;;;4964836;28;20054;-79
2022/11/01 11:19:50;;;;;;;12.98;2.88;;;16.30;99.90;;;;;;4971553;28;20042;-81
2022/11/01 11:22:16;;;;;;;17.38;3.03;;;16.20;99.90;;;;;;4973541;28;20046;-81
2022/11/01 11:24:44;;;;;;;15.00;3.30;;;16.20;99.90;;;;;;4945401;28;20061;-82
2022/11/01 11:27:21;;;;;;;15.15;3.15;;;16.20;99.90;;;;;;4987409;28;20482;-81
2022/11/01 11:30:07;;;;;;;16.35;3.50;;;16.10;99.90;;;;;;4989655;28;20049;-82
2022/11/01 11:32:44;;;;;;;16.05;3.00;;;16.10;99.90;;;;;;4974024;28;20041;-81
2022/11/01 11:35:13;;;;;;;17.00;3.15;;;16.00;99.90;;;;;;4989625;28;20061;-81
2022/11/01 11:37:48;;;;;;;18.80;3.40;;;16.00;99.90;;;;;;4990102;28;20536;-80
2022/11/01 11:40:25;;;;;;;12.10;3.20;;;16.00;99.90;;;;;;4990965;28;20097;-81
2022/11/01 11:42:54;;;;;;;15.93;3.08;;;16.00;99.90;;;;;;4988684;28;20050;-80
2022/11/01 11:45:19;;;;;;;16.50;3.10;;;16.10;99.90;;;;;;4973039;28;20093;-81
2022/11/01 11:47:46;;;;;;;16.23;3.00;;;16.10;99.90;;;;;;4988201;28;20125;-83
2022/11/01 11:50:18;;;;;;;15.82;3.08;;;16.10;99.90;;;;;;4985131;28;20058;-79
2022/11/01 11:53:06;;;;;;;14.77;2.75;;;16.10;99.90;;;;;;4972492;28;20370;-80
2022/11/01 11:55:47;;;;;;;15.63;2.97;;;16.20;99.90;;;;;;4984055;28;20474;-81
2022/11/01 11:58:50;;;;;;;16.95;3.13;;;16.20;99.90;;;;;;4972266;28;20061;-78
2022/11/01 12:01:24;;;;;;;14.68;2.85;;;16.30;99.90;;;;;;4971546;28;20066;-80
2022/11/01 12:04:14;;;;;;;17.85;3.10;;;16.30;99.90;;;;;;4985083;28;20485;-79
2022/11/01 12:06:44;;;;;;;13.98;2.92;;;16.30;99.90;;;;;;4987189;28;20119;-81
2022/11/01 12:09:43;;;;;;;13.20;3.10;;;16.30;99.90;;;;;;4987325;28;20055;-80
2022/11/01 12:12:24;;;;;;;15.35;2.75;;;16.20;99.90;;;;;;4989719;28;20054;-79
2022/11/01 12:14:49;;;;;;;13.63;2.90;;;16.20;99.90;;;;;;4987173;28;20505;-84
2022/11/01 12:17:23;;;;;;;15.07;2.85;;;16.10;99.90;;;;;;4990203;28;20050;-84
2022/11/01 12:19:58;;;;;;;13.50;2.70;;;16.10;99.90;;;;;;4993677;28;20039;-83
2022/11/01 12:22:27;;;;;;;12.55;2.50;;;16.10;99.90;;;;;;4993614;28;20355;-84
2022/11/01 12:24:56;;;;;;;14.85;2.88;;;16.10;99.90;;;;;;4980368;28;20518;-81
2022/11/01 12:27:23;;;;;;;12.65;2.60;;;16.10;99.90;;;;;;4992269;28;20038;-81
2022/11/01 12:30:03;;;;;;;18.45;2.80;;;16.10;99.90;;;;;;4977818;28;20077;-84
2022/11/01 12:32:43;;;;;;;15.55;2.72;;;16.10;99.90;;;;;;4994899;28;20533;-85
2022/11/01 12:35:29;;;;;;;12.10;2.20;;;16.00;99.90;;;;;;4992873;28;20382;-82
2022/11/01 12:38:47;;;;;;;11.93;2.70;;;16.00;99.90;;;;;;4992430;28;20054;-85
2022/11/01 12:41:32;;;;;;;12.70;2.22;;;16.00;99.90;;;;;;4978265;28;20478;-83
2022/11/01 12:44:26;;;;;;;12.02;2.72;;;16.00;99.90;;;;;;5001229;28;20058;-83
2022/11/01 12:47:13;;;;;;;13.93;2.67;;;16.30;99.90;;;;;;4977585;28;20050;-79
2022/11/01 12:50:05;;;;;;;13.13;2.33;;;15.90;99.90;;;;;;4975217;28;20092;-83
2022/11/01 12:52:55;;;;;;;11.47;2.47;;;15.90;99.90;;;;;;4993772;28;20042;-84
2022/11/01 12:55:47;;;;;;;13.10;2.60;;;16.00;99.90;;;;;;4976781;28;20053;-80
2022/11/01 12:58:15;;;;;;;;;;;16.00;99.90;;;;;;4975618;28;20041;-81
2022/11/01 13:00:47;;;;;;;10.25;2.50;;;15.90;99.90;;;;;;4993182;28;19918;-81
2022/11/01 13:03:25;;;;;;;9.35;1.80;;;15.90;99.90;;;;;;4987514;28;20945;-83